createdAt,value
2016-08-30T00:00:49.237Z,1016.76
2016-08-30T00:01:50.494Z,1016.78
2016-08-30T00:02:49.339Z,1016.78
2016-08-30T00:03:49.169Z,1016.81
2016-08-30T00:04:49.190Z,1016.79
2016-08-30T00:05:49.191Z,1016.79
2016-08-30T00:06:49.098Z,1016.78
2016-08-30T00:07:49.063Z,1016.79
2016-08-30T00:08:49.049Z,1016.79
2016-08-30T00:09:49.018Z,1016.79
2016-08-30T00:10:48.994Z,1016.81
2016-08-30T00:11:48.984Z,1016.77
2016-08-30T00:12:48.971Z,1016.71
2016-08-30T00:13:48.918Z,1016.73
2016-08-30T00:14:48.897Z,1016.74
2016-08-30T00:15:48.867Z,1016.72
2016-08-30T00:16:48.850Z,1016.74
2016-08-30T00:17:48.827Z,1016.76
2016-08-30T00:18:48.805Z,1016.74
2016-08-30T00:19:48.780Z,1016.74
2016-08-30T00:20:48.747Z,1016.74
2016-08-30T00:22:48.697Z,1016.76
2016-08-30T00:24:48.666Z,1016.72
2016-08-30T00:26:48.606Z,1016.74
2016-08-30T00:27:48.906Z,1016.73
2016-08-30T00:28:48.567Z,1016.75
2016-08-30T00:29:48.525Z,1016.77
2016-08-30T00:30:48.504Z,1016.76
2016-08-30T00:31:48.479Z,1016.78
2016-08-30T00:32:48.462Z,1016.81
2016-08-30T00:33:48.436Z,1016.79
2016-08-30T00:34:48.412Z,1016.79
2016-08-30T00:35:48.458Z,1016.78
2016-08-30T00:36:48.358Z,1016.83
2016-08-30T00:37:48.328Z,1016.79
2016-08-30T00:38:48.311Z,1016.85
2016-08-30T00:39:48.285Z,1016.87
2016-08-30T00:40:48.257Z,1016.84
2016-08-30T00:41:48.235Z,1016.81
2016-08-30T00:42:48.203Z,1016.83
2016-08-30T00:43:48.181Z,1016.83
2016-08-30T00:44:48.155Z,1016.85
2016-08-30T00:45:48.997Z,1016.81
2016-08-30T00:46:48.109Z,1016.81
2016-08-30T00:47:48.078Z,1016.83
2016-08-30T00:48:48.063Z,1016.84
2016-08-30T00:49:48.038Z,1016.8
2016-08-30T00:51:47.986Z,1016.9
2016-08-30T00:52:47.956Z,1016.82
2016-08-30T00:53:47.933Z,1016.89
2016-08-30T00:54:47.910Z,1016.87
2016-08-30T00:55:47.890Z,1016.88
2016-08-30T00:56:47.863Z,1016.87
2016-08-30T00:57:47.836Z,1016.88
2016-08-30T00:58:47.813Z,1016.92
2016-08-30T00:59:48.438Z,1016.9
2016-08-30T01:00:47.770Z,1016.92
2016-08-30T01:01:47.769Z,1016.92
2016-08-30T01:02:47.710Z,1016.99
2016-08-30T01:03:47.686Z,1016.98
2016-08-30T01:04:47.680Z,1016.99
2016-08-30T01:05:47.645Z,1017.02
2016-08-30T01:06:47.614Z,1017.04
2016-08-30T01:07:47.621Z,1017.04
2016-08-30T01:08:47.563Z,1017.07
2016-08-30T01:09:47.787Z,1017.04
2016-08-30T01:10:47.547Z,1017.04
2016-08-30T01:11:47.499Z,1017.09
2016-08-30T01:12:47.467Z,1017.1
2016-08-30T01:13:47.456Z,1017.09
2016-08-30T01:14:47.412Z,1017.08
2016-08-30T01:15:47.393Z,1017.12
2016-08-30T01:16:47.664Z,1017.13
2016-08-30T01:17:47.345Z,1017.14
2016-08-30T01:18:47.316Z,1017.11
2016-08-30T01:19:47.297Z,1017.12
2016-08-30T01:20:47.268Z,1017.1
2016-08-30T01:21:47.261Z,1017.13
2016-08-30T01:22:47.228Z,1017.12
2016-08-30T01:23:47.196Z,1017.1
2016-08-30T01:24:47.168Z,1017.17
2016-08-30T01:25:47.143Z,1017.14
2016-08-30T01:26:47.127Z,1017.13
2016-08-30T01:27:47.090Z,1017.13
2016-08-30T01:28:47.066Z,1017.17
2016-08-30T01:29:47.445Z,1017.17
2016-08-30T01:30:47.520Z,1017.18
2016-08-30T01:31:46.995Z,1017.2
2016-08-30T01:32:46.965Z,1017.2
2016-08-30T01:33:46.939Z,1017.21
2016-08-30T01:34:46.929Z,1017.23
2016-08-30T01:35:46.889Z,1017.22
2016-08-30T01:36:46.866Z,1017.21
2016-08-30T01:37:46.851Z,1017.21
2016-08-30T01:38:46.820Z,1017.24
2016-08-30T01:39:46.792Z,1017.25
2016-08-30T01:40:46.769Z,1017.21
2016-08-30T01:41:46.741Z,1017.21
2016-08-30T01:42:46.718Z,1017.19
2016-08-30T01:43:46.693Z,1017.18
2016-08-30T01:44:46.671Z,1017.17
2016-08-30T01:45:46.643Z,1017.18
2016-08-30T01:46:46.621Z,1017.21
2016-08-30T01:47:46.593Z,1017.2
2016-08-30T01:48:46.570Z,1017.16
2016-08-30T01:49:46.648Z,1017.18
2016-08-30T01:50:46.516Z,1017.2
2016-08-30T01:51:46.493Z,1017.19
2016-08-30T01:52:46.472Z,1017.2
2016-08-30T01:53:46.440Z,1017.21
2016-08-30T01:54:46.434Z,1017.22
2016-08-30T01:55:46.401Z,1017.26
2016-08-30T01:56:46.399Z,1017.23
2016-08-30T01:57:46.346Z,1017.24
2016-08-30T01:58:46.325Z,1017.27
2016-08-30T01:59:46.291Z,1017.26
2016-08-30T02:00:46.281Z,1017.26
2016-08-30T02:01:46.242Z,1017.24
2016-08-30T02:02:46.211Z,1017.27
2016-08-30T02:03:46.189Z,1017.31
2016-08-30T02:04:46.169Z,1017.29
2016-08-30T02:05:46.144Z,1017.34
2016-08-30T02:06:46.118Z,1017.29
2016-08-30T02:07:46.125Z,1017.31
2016-08-30T02:08:46.114Z,1017.33
2016-08-30T02:09:46.149Z,1017.31
2016-08-30T02:10:46.120Z,1017.29
2016-08-30T02:12:46.171Z,1017.29
2016-08-30T02:14:46.087Z,1017.3
2016-08-30T02:15:46.098Z,1017.31
2016-08-30T02:16:46.071Z,1017.3
2016-08-30T02:17:46.147Z,1017.35
2016-08-30T02:18:46.075Z,1017.35
2016-08-30T02:19:46.095Z,1017.37
2016-08-30T02:22:46.215Z,1017.37
2016-08-30T02:24:46.123Z,1017.36
2016-08-30T02:25:46.003Z,1017.32
2016-08-30T02:27:46.149Z,1017.32
2016-08-30T02:30:46.017Z,1017.36
2016-08-30T02:32:45.921Z,1017.36
2016-08-30T02:34:45.987Z,1017.33
2016-08-30T02:35:46.009Z,1017.36
2016-08-30T02:36:45.902Z,1017.34
2016-08-30T02:37:45.921Z,1017.34
2016-08-30T02:38:45.955Z,1017.36
2016-08-30T02:39:45.583Z,1017.31
2016-08-30T02:40:45.508Z,1017.31
2016-08-30T02:41:45.318Z,1017.29
2016-08-30T02:42:45.209Z,1017.27
2016-08-30T02:43:45.192Z,1017.33
2016-08-30T02:44:45.164Z,1017.31
2016-08-30T02:45:45.134Z,1017.33
2016-08-30T02:47:46.053Z,1017.32
2016-08-30T02:49:45.033Z,1017.29
2016-08-30T02:51:44.989Z,1017.34
2016-08-30T02:52:44.958Z,1017.34
2016-08-30T02:53:44.931Z,1017.31
2016-08-30T02:54:44.907Z,1017.31
2016-08-30T02:55:44.939Z,1017.29
2016-08-30T02:56:44.860Z,1017.31
2016-08-30T02:57:44.832Z,1017.3
2016-08-30T02:58:44.809Z,1017.28
2016-08-30T02:59:44.785Z,1017.29
2016-08-30T03:00:44.789Z,1017.26
2016-08-30T03:01:44.782Z,1017.23
2016-08-30T03:02:44.706Z,1017.27
2016-08-30T03:03:44.683Z,1017.29
2016-08-30T03:04:44.663Z,1017.3
2016-08-30T03:05:44.677Z,1017.28
2016-08-30T03:06:44.607Z,1017.27
2016-08-30T03:08:44.566Z,1017.26
2016-08-30T03:09:44.534Z,1017.26
2016-08-30T03:10:44.511Z,1017.25
2016-08-30T03:11:44.481Z,1017.25
2016-08-30T03:12:44.454Z,1017.23
2016-08-30T03:13:44.427Z,1017.24
2016-08-30T03:14:44.404Z,1017.24
2016-08-30T03:15:44.389Z,1017.25
2016-08-30T03:16:44.402Z,1017.24
2016-08-30T03:17:44.399Z,1017.24
2016-08-30T03:18:44.299Z,1017.25
2016-08-30T03:19:44.279Z,1017.26
2016-08-30T03:20:44.249Z,1017.24
2016-08-30T03:21:44.226Z,1017.23
2016-08-30T03:22:44.202Z,1017.21
2016-08-30T03:24:44.143Z,1017.16
2016-08-30T03:25:44.120Z,1017.21
2016-08-30T03:26:44.110Z,1017.2
2016-08-30T03:27:44.073Z,1017.19
2016-08-30T03:28:49.347Z,1017.21
2016-08-30T03:29:44.019Z,1017.2
2016-08-30T03:31:43.968Z,1017.21
2016-08-30T03:32:43.942Z,1017.19
2016-08-30T03:33:43.917Z,1017.17
2016-08-30T03:34:43.914Z,1017.16
2016-08-30T03:35:43.909Z,1017.15
2016-08-30T03:36:43.852Z,1017.18
2016-08-30T03:37:43.828Z,1017.18
2016-08-30T03:38:43.796Z,1017.2
2016-08-30T03:39:43.778Z,1017.25
2016-08-30T03:40:43.745Z,1017.24
2016-08-30T03:41:43.711Z,1017.25
2016-08-30T03:42:43.685Z,1017.27
2016-08-30T03:44:43.644Z,1017.28
2016-08-30T03:45:43.665Z,1017.27
2016-08-30T03:46:43.586Z,1017.29
2016-08-30T03:47:43.565Z,1017.29
2016-08-30T03:48:43.548Z,1017.28
2016-08-30T03:49:43.536Z,1017.26
2016-08-30T03:50:43.478Z,1017.26
2016-08-30T03:51:43.465Z,1017.3
2016-08-30T03:52:43.443Z,1017.3
2016-08-30T03:53:43.400Z,1017.31
2016-08-30T03:54:43.414Z,1017.3
2016-08-30T03:55:43.361Z,1017.29
2016-08-30T03:56:43.335Z,1017.3
2016-08-30T03:57:43.301Z,1017.3
2016-08-30T03:58:43.282Z,1017.27
2016-08-30T03:59:43.249Z,1017.29
2016-08-30T04:00:43.224Z,1017.31
2016-08-30T04:01:43.199Z,1017.29
2016-08-30T04:02:43.180Z,1017.33
2016-08-30T04:03:43.153Z,1017.34
2016-08-30T04:04:43.139Z,1017.35
2016-08-30T04:05:43.098Z,1017.33
2016-08-30T04:06:43.076Z,1017.35
2016-08-30T04:07:43.061Z,1017.35
2016-08-30T04:08:43.024Z,1017.37
2016-08-30T04:09:42.992Z,1017.31
2016-08-30T04:10:42.964Z,1017.34
2016-08-30T04:11:42.942Z,1017.27
2016-08-30T04:12:42.967Z,1017.31
2016-08-30T04:13:42.891Z,1017.32
2016-08-30T04:14:42.877Z,1017.33
2016-08-30T04:15:42.841Z,1017.3
2016-08-30T04:16:42.818Z,1017.28
2016-08-30T04:17:42.799Z,1017.29
2016-08-30T04:18:42.768Z,1017.31
2016-08-30T04:19:42.738Z,1017.29
2016-08-30T04:20:42.712Z,1017.29
2016-08-30T04:22:42.663Z,1017.32
2016-08-30T04:23:42.636Z,1017.33
2016-08-30T04:24:42.611Z,1017.34
2016-08-30T04:26:42.563Z,1017.34
2016-08-30T04:27:42.526Z,1017.34
2016-08-30T04:28:42.505Z,1017.31
2016-08-30T04:29:42.479Z,1017.37
2016-08-30T04:30:42.462Z,1017.34
2016-08-30T04:31:42.427Z,1017.35
2016-08-30T04:32:42.405Z,1017.33
2016-08-30T04:33:42.395Z,1017.38
2016-08-30T04:34:42.351Z,1017.34
2016-08-30T04:35:42.331Z,1017.36
2016-08-30T04:36:42.297Z,1017.35
2016-08-30T04:37:42.273Z,1017.35
2016-08-30T04:38:42.473Z,1017.37
2016-08-30T04:39:42.237Z,1017.37
2016-08-30T04:40:42.199Z,1017.4
2016-08-30T04:41:42.167Z,1017.42
2016-08-30T04:42:42.146Z,1017.43
2016-08-30T04:43:42.115Z,1017.43
2016-08-30T04:44:42.106Z,1017.44
2016-08-30T04:45:42.068Z,1017.48
2016-08-30T04:46:42.036Z,1017.49
2016-08-30T04:47:42.025Z,1017.5
2016-08-30T04:48:41.989Z,1017.52
2016-08-30T04:49:41.968Z,1017.52
2016-08-30T04:51:41.913Z,1017.52
2016-08-30T04:52:41.885Z,1017.53
2016-08-30T04:53:41.857Z,1017.55
2016-08-30T04:54:42.117Z,1017.56
2016-08-30T04:55:41.812Z,1017.56
2016-08-30T04:56:41.788Z,1017.57
2016-08-30T04:57:41.756Z,1017.57
2016-08-30T04:58:41.726Z,1017.64
2016-08-30T04:59:41.711Z,1017.62
2016-08-30T05:00:41.676Z,1017.62
2016-08-30T05:01:41.660Z,1017.64
2016-08-30T05:02:41.629Z,1017.63
2016-08-30T05:03:41.600Z,1017.64
2016-08-30T05:04:41.578Z,1017.64
2016-08-30T05:05:41.569Z,1017.64
2016-08-30T05:06:41.575Z,1017.62
2016-08-30T05:07:41.538Z,1017.65
2016-08-30T05:08:41.472Z,1017.66
2016-08-30T05:09:41.443Z,1017.65
2016-08-30T05:10:41.414Z,1017.65
2016-08-30T05:11:41.407Z,1017.67
2016-08-30T05:12:41.366Z,1017.65
2016-08-30T05:13:41.337Z,1017.68
2016-08-30T05:14:41.313Z,1017.68
2016-08-30T05:15:41.297Z,1017.7
2016-08-30T05:16:41.262Z,1017.71
2016-08-30T05:17:41.235Z,1017.71
2016-08-30T05:19:41.186Z,1017.76
2016-08-30T05:20:41.158Z,1017.76
2016-08-30T05:21:41.139Z,1017.76
2016-08-30T05:22:41.106Z,1017.79
2016-08-30T05:23:41.092Z,1017.8
2016-08-30T05:24:41.069Z,1017.81
2016-08-30T05:25:41.088Z,1017.84
2016-08-30T05:26:41.002Z,1017.84
2016-08-30T05:27:40.981Z,1017.8
2016-08-30T05:28:40.957Z,1017.83
2016-08-30T05:29:40.933Z,1017.82
2016-08-30T05:30:40.907Z,1017.85
2016-08-30T05:31:41.343Z,1017.85
2016-08-30T05:32:40.854Z,1017.9
2016-08-30T05:33:40.832Z,1017.88
2016-08-30T05:34:40.802Z,1017.93
2016-08-30T05:35:40.773Z,1017.9
2016-08-30T05:36:40.744Z,1017.91
2016-08-30T05:37:40.717Z,1017.93
2016-08-30T05:38:40.698Z,1017.92
2016-08-30T05:39:40.669Z,1017.96
2016-08-30T05:40:40.641Z,1017.99
2016-08-30T05:41:40.656Z,1017.94
2016-08-30T05:42:40.900Z,1017.93
2016-08-30T05:43:40.564Z,1017.96
2016-08-30T05:45:41.495Z,1017.95
2016-08-30T05:46:40.533Z,1017.95
2016-08-30T05:47:40.456Z,1017.95
2016-08-30T05:48:40.431Z,1017.95
2016-08-30T05:49:40.416Z,1018
2016-08-30T05:50:40.386Z,1018.01
2016-08-30T05:51:40.355Z,1018.03
2016-08-30T05:52:40.331Z,1018.04
2016-08-30T05:53:40.322Z,1018.06
2016-08-30T05:57:55.316Z,1018.11
2016-08-30T05:58:29.604Z,1018.08
2016-08-30T05:59:29.915Z,1018.11
2016-08-30T06:00:38.706Z,1018.14
2016-08-30T06:01:31.595Z,1018.15
2016-08-30T06:02:29.539Z,1018.13
2016-08-30T06:03:29.483Z,1018.16
2016-08-30T06:04:29.449Z,1018.18
2016-08-30T06:05:29.423Z,1018.17
2016-08-30T06:06:29.394Z,1018.19
2016-08-30T06:07:29.376Z,1018.23
2016-08-30T06:08:29.489Z,1018.24
2016-08-30T06:09:29.395Z,1018.22
2016-08-30T06:11:29.286Z,1018.21
2016-08-30T06:13:29.224Z,1018.21
2016-08-30T06:14:29.195Z,1018.24
2016-08-30T06:15:29.169Z,1018.22
2016-08-30T06:16:29.156Z,1018.26
2016-08-30T06:17:29.132Z,1018.22
2016-08-30T06:18:29.301Z,1018.18
2016-08-30T06:19:29.063Z,1018.18
2016-08-30T06:20:29.145Z,1018.18
2016-08-30T06:21:29.031Z,1018.21
2016-08-30T06:22:29.045Z,1018.2
2016-08-30T06:23:29.080Z,1018.22
2016-08-30T06:24:28.938Z,1018.2
2016-08-30T06:25:28.910Z,1018.27
2016-08-30T06:26:28.908Z,1018.26
2016-08-30T06:27:29.420Z,1018.28
2016-08-30T06:28:28.854Z,1018.25
2016-08-30T06:29:29.232Z,1018.28
2016-08-30T06:30:28.780Z,1018.3
2016-08-30T06:31:28.764Z,1018.31
2016-08-30T06:32:28.724Z,1018.35
2016-08-30T06:33:28.722Z,1018.35
2016-08-30T06:34:28.678Z,1018.31
2016-08-30T06:36:28.644Z,1018.3
2016-08-30T06:38:28.580Z,1018.29
2016-08-30T06:40:28.544Z,1018.29
2016-08-30T06:41:28.510Z,1018.3
2016-08-30T06:42:28.476Z,1018.31
2016-08-30T06:44:28.426Z,1018.3
2016-08-30T06:45:28.402Z,1018.33
2016-08-30T06:46:28.392Z,1018.34
2016-08-30T06:47:28.345Z,1018.34
2016-08-30T06:48:28.326Z,1018.35
2016-08-30T06:49:28.304Z,1018.35
2016-08-30T06:50:28.297Z,1018.35
2016-08-30T06:51:28.254Z,1018.39
2016-08-30T06:52:28.221Z,1018.39
2016-08-30T06:53:28.199Z,1018.38
2016-08-30T06:54:28.169Z,1018.42
2016-08-30T06:55:28.156Z,1018.4
2016-08-30T06:56:28.169Z,1018.4
2016-08-30T06:57:28.104Z,1018.41
2016-08-30T06:58:28.173Z,1018.42
2016-08-30T06:59:28.051Z,1018.38
2016-08-30T07:00:28.016Z,1018.4
2016-08-30T07:01:27.999Z,1018.38
2016-08-30T07:02:27.970Z,1018.39
2016-08-30T07:03:27.951Z,1018.4
2016-08-30T07:04:27.917Z,1018.36
2016-08-30T07:05:27.901Z,1018.35
2016-08-30T07:06:27.873Z,1018.35
2016-08-30T07:07:27.843Z,1018.38
2016-08-30T07:08:27.820Z,1018.38
2016-08-30T07:09:27.808Z,1018.38
2016-08-30T07:10:27.779Z,1018.41
2016-08-30T07:11:27.757Z,1018.43
2016-08-30T07:12:27.723Z,1018.42
2016-08-30T07:13:27.703Z,1018.48
2016-08-30T07:14:27.678Z,1018.49
2016-08-30T07:15:27.642Z,1018.5
2016-08-30T07:16:27.643Z,1018.45
2016-08-30T07:17:27.600Z,1018.43
2016-08-30T07:18:27.565Z,1018.47
2016-08-30T07:19:27.543Z,1018.44
2016-08-30T07:20:27.528Z,1018.44
2016-08-30T07:21:27.503Z,1018.49
2016-08-30T07:22:27.473Z,1018.5
2016-08-30T07:23:27.772Z,1018.52
2016-08-30T07:24:27.452Z,1018.47
2016-08-30T07:25:27.475Z,1018.48
2016-08-30T07:26:27.375Z,1018.5
2016-08-30T07:27:27.339Z,1018.48
2016-08-30T07:28:27.325Z,1018.52
2016-08-30T07:29:27.296Z,1018.54
2016-08-30T07:30:27.265Z,1018.55
2016-08-30T07:31:27.251Z,1018.51
2016-08-30T07:32:27.220Z,1018.5
2016-08-30T07:33:27.199Z,1018.54
2016-08-30T07:34:27.164Z,1018.53
2016-08-30T07:35:27.162Z,1018.56
2016-08-30T07:36:27.147Z,1018.56
2016-08-30T07:37:27.091Z,1018.58
2016-08-30T07:38:27.065Z,1018.56
2016-08-30T07:39:27.043Z,1018.58
2016-08-30T07:40:27.025Z,1018.59
2016-08-30T07:41:27.001Z,1018.6
2016-08-30T07:42:26.974Z,1018.64
2016-08-30T07:43:26.940Z,1018.67
2016-08-30T07:44:26.927Z,1018.64
2016-08-30T07:45:27.358Z,1018.66
2016-08-30T07:46:26.868Z,1018.69
2016-08-30T07:47:26.848Z,1018.71
2016-08-30T07:48:26.834Z,1018.71
2016-08-30T07:49:26.808Z,1018.7
2016-08-30T07:50:26.769Z,1018.73
2016-08-30T07:51:26.753Z,1018.75
2016-08-30T07:52:26.719Z,1018.73
2016-08-30T07:53:27.000Z,1018.75
2016-08-30T07:55:26.643Z,1018.78
2016-08-30T07:56:26.622Z,1018.77
2016-08-30T07:57:26.599Z,1018.8
2016-08-30T07:58:26.567Z,1018.79
2016-08-30T07:59:26.674Z,1018.79
2016-08-30T08:00:26.553Z,1018.81
2016-08-30T08:01:26.504Z,1018.79
2016-08-30T08:02:26.476Z,1018.86
2016-08-30T08:03:26.453Z,1018.83
2016-08-30T08:04:26.422Z,1018.87
2016-08-30T08:06:26.371Z,1018.88
2016-08-30T08:07:26.349Z,1018.88
2016-08-30T08:08:27.080Z,1018.85
2016-08-30T08:09:26.308Z,1018.84
2016-08-30T08:10:26.274Z,1018.85
2016-08-30T08:11:26.248Z,1018.85
2016-08-30T08:12:26.224Z,1018.85
2016-08-30T08:13:26.201Z,1018.85
2016-08-30T08:14:26.175Z,1018.85
2016-08-30T08:15:26.156Z,1018.92
2016-08-30T08:16:26.142Z,1018.94
2016-08-30T08:17:26.114Z,1018.93
2016-08-30T08:18:26.076Z,1018.93
2016-08-30T08:19:26.055Z,1018.98
2016-08-30T08:20:26.024Z,1018.97
2016-08-30T08:21:26.042Z,1018.98
2016-08-30T08:22:25.978Z,1018.98
2016-08-30T08:23:25.958Z,1018.97
2016-08-30T08:24:25.929Z,1018.98
2016-08-30T08:25:25.927Z,1019
2016-08-30T08:26:25.884Z,1018.99
2016-08-30T08:27:25.857Z,1018.94
2016-08-30T08:28:25.829Z,1018.99
2016-08-30T08:29:25.838Z,1018.98
2016-08-30T08:30:25.779Z,1018.98
2016-08-30T08:31:25.757Z,1018.98
2016-08-30T08:32:25.738Z,1019.02
2016-08-30T08:33:25.711Z,1019
2016-08-30T08:35:25.696Z,1019.03
2016-08-30T08:36:25.642Z,1019
2016-08-30T08:37:25.616Z,1019.05
2016-08-30T08:38:25.640Z,1019.07
2016-08-30T08:39:25.608Z,1019.04
2016-08-30T08:40:25.738Z,1019.03
2016-08-30T08:42:25.485Z,1019.05
2016-08-30T08:44:25.473Z,1019.12
2016-08-30T08:45:25.421Z,1019.09
2016-08-30T08:46:25.394Z,1019.09
2016-08-30T08:47:25.415Z,1019.11
2016-08-30T08:48:25.352Z,1019.06
2016-08-30T08:49:25.328Z,1019.1
2016-08-30T08:50:25.375Z,1019.08
2016-08-30T08:51:25.269Z,1019.1
2016-08-30T08:52:25.255Z,1019.12
2016-08-30T08:53:25.214Z,1019.12
2016-08-30T08:54:25.198Z,1019.14
2016-08-30T08:55:25.249Z,1019.15
2016-08-30T08:56:25.158Z,1019.19
2016-08-30T08:57:25.129Z,1019.19
2016-08-30T08:58:25.103Z,1019.19
2016-08-30T08:59:25.097Z,1019.19
2016-08-30T09:00:25.581Z,1019.17
2016-08-30T09:01:25.038Z,1019.22
2016-08-30T09:03:25.087Z,1019.23
2016-08-30T09:04:24.975Z,1019.22
2016-08-30T09:05:25.270Z,1019.26
2016-08-30T09:06:25.205Z,1019.27
2016-08-30T09:07:24.901Z,1019.26
2016-08-30T09:08:24.862Z,1019.24
2016-08-30T09:09:24.830Z,1019.24
2016-08-30T09:10:24.813Z,1019.23
2016-08-30T09:11:24.788Z,1019.22
2016-08-30T09:12:24.776Z,1019.2
2016-08-30T09:13:24.745Z,1019.2
2016-08-30T09:14:24.728Z,1019.19
2016-08-30T09:15:24.686Z,1019.18
2016-08-30T09:16:24.677Z,1019.16
2016-08-30T09:17:24.655Z,1019.19
2016-08-30T09:18:24.685Z,1019.21
2016-08-30T09:19:24.593Z,1019.21
2016-08-30T09:20:24.568Z,1019.21
2016-08-30T09:21:24.551Z,1019.24
2016-08-30T09:22:24.549Z,1019.24
2016-08-30T09:23:24.508Z,1019.22
2016-08-30T09:24:24.476Z,1019.23
2016-08-30T09:25:24.879Z,1019.22
2016-08-30T09:26:24.428Z,1019.2
2016-08-30T09:27:24.414Z,1019.26
2016-08-30T09:28:24.379Z,1019.27
2016-08-30T09:29:24.376Z,1019.2
2016-08-30T09:30:24.333Z,1019.26
2016-08-30T09:31:24.334Z,1019.26
2016-08-30T09:32:24.282Z,1019.22
2016-08-30T09:33:24.273Z,1019.24
2016-08-30T09:34:24.239Z,1019.28
2016-08-30T09:35:24.211Z,1019.22
2016-08-30T09:36:24.193Z,1019.21
2016-08-30T09:37:24.157Z,1019.24
2016-08-30T09:38:24.136Z,1019.22
2016-08-30T09:39:24.132Z,1019.17
2016-08-30T09:40:24.091Z,1019.19
2016-08-30T09:41:24.078Z,1019.19
2016-08-30T09:42:24.040Z,1019.17
2016-08-30T09:43:24.021Z,1019.21
2016-08-30T09:44:24.004Z,1019.21
2016-08-30T09:45:23.964Z,1019.2
2016-08-30T09:46:23.953Z,1019.24
2016-08-30T09:47:23.934Z,1019.22
2016-08-30T09:48:23.923Z,1019.23
2016-08-30T09:49:23.899Z,1019.15
2016-08-30T09:50:23.840Z,1019.17
2016-08-30T09:51:23.822Z,1019.18
2016-08-30T09:52:23.793Z,1019.15
2016-08-30T09:53:23.779Z,1019.11
2016-08-30T09:54:23.801Z,1019.14
2016-08-30T09:55:23.724Z,1019.1
2016-08-30T09:56:24.017Z,1019.09
2016-08-30T09:57:23.678Z,1019.11
2016-08-30T09:59:23.630Z,1019.03
2016-08-30T10:00:23.830Z,1018.99
2016-08-30T10:01:23.585Z,1019.03
2016-08-30T10:02:23.550Z,1019.03
2016-08-30T10:03:23.527Z,1019
2016-08-30T10:04:23.534Z,1018.96
2016-08-30T10:05:23.489Z,1018.97
2016-08-30T10:06:23.933Z,1018.94
2016-08-30T10:07:23.910Z,1018.97
2016-08-30T10:08:23.628Z,1018.91
2016-08-30T10:09:23.510Z,1018.94
2016-08-30T10:10:23.383Z,1018.93
2016-08-30T10:12:42.476Z,1018.9
2016-08-30T10:13:41.468Z,1018.92
2016-08-30T10:14:41.135Z,1018.88
2016-08-30T10:15:41.102Z,1018.85
2016-08-30T10:16:41.077Z,1018.83
2016-08-30T10:17:41.042Z,1018.81
2016-08-30T10:19:40.995Z,1018.76
2016-08-30T10:20:40.976Z,1018.72
2016-08-30T10:21:40.961Z,1018.76
2016-08-30T10:23:40.904Z,1018.78
2016-08-30T10:24:40.891Z,1018.71
2016-08-30T10:25:40.861Z,1018.77
2016-08-30T10:26:40.833Z,1018.73
2016-08-30T10:27:40.806Z,1018.74
2016-08-30T10:28:40.781Z,1018.76
2016-08-30T10:29:40.757Z,1018.74
2016-08-30T10:30:40.727Z,1018.71
2016-08-30T10:31:40.726Z,1018.68
2016-08-30T10:32:40.707Z,1018.73
2016-08-30T10:33:40.705Z,1018.71
2016-08-30T10:34:40.644Z,1018.67
2016-08-30T10:35:40.611Z,1018.71
2016-08-30T10:36:40.587Z,1018.71
2016-08-30T10:37:40.574Z,1018.72
2016-08-30T10:38:40.552Z,1018.68
2016-08-30T10:39:40.526Z,1018.65
2016-08-30T10:40:40.505Z,1018.7
2016-08-30T10:41:40.467Z,1018.65
2016-08-30T10:42:40.500Z,1018.64
2016-08-30T10:43:40.424Z,1018.7
2016-08-30T10:44:40.413Z,1018.71
2016-08-30T10:45:40.375Z,1018.69
2016-08-30T10:46:40.375Z,1018.67
2016-08-30T10:47:40.325Z,1018.68
2016-08-30T10:48:40.312Z,1018.65
2016-08-30T10:49:40.285Z,1018.68
2016-08-30T10:50:40.255Z,1018.62
2016-08-30T10:51:40.248Z,1018.6
2016-08-30T10:52:40.410Z,1018.61
2016-08-30T10:53:40.214Z,1018.59
2016-08-30T10:54:40.219Z,1018.61
2016-08-30T10:55:40.171Z,1018.56
2016-08-30T10:56:40.114Z,1018.56
2016-08-30T10:57:40.100Z,1018.52
2016-08-30T10:58:40.067Z,1018.56
2016-08-30T10:59:40.046Z,1018.58
2016-08-30T11:00:40.025Z,1018.54
2016-08-30T11:01:40.024Z,1018.53
2016-08-30T11:02:39.975Z,1018.56
2016-08-30T11:03:39.969Z,1018.54
2016-08-30T11:04:39.974Z,1018.56
2016-08-30T11:05:39.900Z,1018.54
2016-08-30T11:06:39.883Z,1018.52
2016-08-30T11:07:39.864Z,1018.52
2016-08-30T11:08:39.829Z,1018.48
2016-08-30T11:09:39.819Z,1018.49
2016-08-30T11:10:39.788Z,1018.48
2016-08-30T11:11:39.758Z,1018.45
2016-08-30T11:12:39.744Z,1018.47
2016-08-30T11:13:39.736Z,1018.43
2016-08-30T11:14:39.709Z,1018.44
2016-08-30T11:15:39.671Z,1018.46
2016-08-30T11:16:39.685Z,1018.42
2016-08-30T11:17:39.633Z,1018.4
2016-08-30T11:18:39.620Z,1018.37
2016-08-30T11:19:39.574Z,1018.38
2016-08-30T11:20:39.566Z,1018.42
2016-08-30T11:21:39.518Z,1018.36
2016-08-30T11:22:39.508Z,1018.38
2016-08-30T11:23:39.470Z,1018.31
2016-08-30T11:24:39.455Z,1018.3
2016-08-30T11:25:39.432Z,1018.26
2016-08-30T11:28:39.657Z,1018.23
2016-08-30T11:29:39.502Z,1018.2
2016-08-30T11:30:39.550Z,1018.15
2016-08-30T11:31:39.819Z,1018.15
2016-08-30T11:33:39.610Z,1018.2
2016-08-30T11:34:39.848Z,1018.22
2016-08-30T11:36:39.173Z,1018.22
2016-08-30T11:38:39.133Z,1018.18
2016-08-30T11:39:39.099Z,1018.21
2016-08-30T11:40:39.080Z,1018.22
2016-08-30T11:41:39.098Z,1018.19
2016-08-30T11:42:39.029Z,1018.17
2016-08-30T11:43:39.002Z,1018.17
2016-08-30T11:44:39.003Z,1018.19
2016-08-30T11:45:38.966Z,1018.12
2016-08-30T11:46:38.938Z,1018.13
2016-08-30T11:48:39.519Z,1018.16
2016-08-30T11:49:38.867Z,1018.15
2016-08-30T11:50:38.840Z,1018.14
2016-08-30T11:51:38.814Z,1018.09
2016-08-30T11:52:38.798Z,1018.1
2016-08-30T11:53:38.774Z,1018.09
2016-08-30T11:54:38.762Z,1018.08
2016-08-30T11:55:39.795Z,1018.03
2016-08-30T11:56:39.140Z,1018.01
2016-08-30T11:58:39.352Z,1018.03
2016-08-30T11:59:38.842Z,1018.02
2016-08-30T12:00:38.944Z,1018.04
2016-08-30T12:01:38.593Z,1018.03
2016-08-30T12:02:38.557Z,1017.98
2016-08-30T12:03:38.553Z,1017.98
2016-08-30T12:04:38.598Z,1017.99
2016-08-30T12:05:38.495Z,1017.97
2016-08-30T12:06:38.466Z,1017.95
2016-08-30T12:07:38.445Z,1017.98
2016-08-30T12:08:38.414Z,1017.99
2016-08-30T12:09:38.405Z,1017.98
2016-08-30T12:10:38.391Z,1017.95
2016-08-30T12:11:38.370Z,1018
2016-08-30T12:12:38.338Z,1017.98
2016-08-30T12:13:38.349Z,1017.97
2016-08-30T12:14:38.283Z,1018
2016-08-30T12:15:38.273Z,1017.96
2016-08-30T12:16:38.246Z,1017.92
2016-08-30T12:17:38.219Z,1017.96
2016-08-30T12:18:38.299Z,1017.91
2016-08-30T12:19:38.173Z,1017.98
2016-08-30T12:21:38.158Z,1017.94
2016-08-30T12:23:38.111Z,1017.88
2016-08-30T12:24:38.136Z,1017.95
2016-08-30T12:25:38.049Z,1017.91
2016-08-30T12:26:38.016Z,1017.86
2016-08-30T12:27:37.992Z,1017.86
2016-08-30T12:28:38.099Z,1017.88
2016-08-30T12:30:38.052Z,1017.88
2016-08-30T12:31:37.911Z,1017.88
2016-08-30T12:32:37.886Z,1017.88
2016-08-30T12:33:37.991Z,1017.86
2016-08-30T12:34:37.860Z,1017.84
2016-08-30T12:35:37.824Z,1017.84
2016-08-30T12:36:37.807Z,1017.83
2016-08-30T12:37:37.769Z,1017.82
2016-08-30T12:38:37.746Z,1017.79
2016-08-30T12:39:37.719Z,1017.8
2016-08-30T12:40:37.707Z,1017.79
2016-08-30T12:41:37.715Z,1017.77
2016-08-30T12:42:37.657Z,1017.71
2016-08-30T12:43:37.678Z,1017.72
2016-08-30T12:44:37.611Z,1017.66
2016-08-30T12:45:37.643Z,1017.7
2016-08-30T12:46:37.567Z,1017.69
2016-08-30T12:47:37.538Z,1017.69
2016-08-30T12:48:37.529Z,1017.75
2016-08-30T12:49:37.521Z,1017.65
2016-08-30T12:50:37.473Z,1017.69
2016-08-30T12:51:37.460Z,1017.66
2016-08-30T12:52:37.438Z,1017.65
2016-08-30T12:54:37.381Z,1017.65
2016-08-30T12:55:37.357Z,1017.59
2016-08-30T12:56:37.338Z,1017.58
2016-08-30T12:57:37.315Z,1017.59
2016-08-30T12:58:37.294Z,1017.55
2016-08-30T12:59:37.264Z,1017.56
2016-08-30T13:00:37.242Z,1017.57
2016-08-30T13:01:37.216Z,1017.56
2016-08-30T13:02:37.201Z,1017.56
2016-08-30T13:03:37.187Z,1017.58
2016-08-30T13:04:37.157Z,1017.56